Terminal Aerodrome Forecast
Issued by NWS New Orleans/Baton Rouge, LA

Home | Current Version | Previous Version | Text Only | Print | Product List | Glossary On
Versions: 1 2 3 4 5 6 7 8 9 10 11 12 13 14 15 16 17 18 19
000
FTUS44 KLIX 020520
TAFNEW
TAF
KNEW 020520Z 0206/0306 19008KT P6SM SCT150
     FM021300 13006KT P6SM BKN035
     FM021400 14007KT P6SM VCTS BKN045CB
     FM021600 17018G30KT 3SM TSRA BR BKN025CB OVC150
     FM021800 19015KT P6SM -SHRA SCT050 OVC150
      TEMPO 0220/0223 29020G35KT P6SM NSW
     FM030000 23009KT P6SM -RA OVC150=

USA.gov is the U.S. government's official web portal to all federal, state and local government web resources and services.